createdAt,value
2018-11-25T00:00:20.955Z,5.98
2018-11-25T00:02:49.805Z,5.93
2018-11-25T00:05:18.597Z,5.95
2018-11-25T00:07:47.706Z,6.08
2018-11-25T00:10:16.591Z,5.87
2018-11-25T00:12:45.352Z,5.81
2018-11-25T00:15:14.297Z,5.87
2018-11-25T00:17:43.370Z,5.89
2018-11-25T00:20:13.264Z,5.84
2018-11-25T00:22:42.620Z,5.86
2018-11-25T00:25:12.801Z,5.90
2018-11-25T00:27:41.654Z,5.90
2018-11-25T00:30:13.728Z,6.00
2018-11-25T00:32:42.559Z,6.08
2018-11-25T00:35:16.197Z,6.12
2018-11-25T00:37:48.460Z,6.07
2018-11-25T00:40:15.756Z,5.95
2018-11-25T00:42:45.450Z,5.95
2018-11-25T00:45:19.429Z,6.06
2018-11-25T00:47:49.077Z,5.92
2018-11-25T00:50:17.863Z,6.03
2018-11-25T00:52:46.614Z,6.13
2018-11-25T00:55:17.700Z,6.13
2018-11-25T00:57:46.483Z,6.13
2018-11-25T01:00:17.360Z,6.16
2018-11-25T01:02:49.732Z,6.15
2018-11-25T01:05:18.697Z,6.04
2018-11-25T01:07:47.452Z,6.05
2018-11-25T01:10:16.981Z,6.01
2018-11-25T01:12:46.063Z,6.02
2018-11-25T01:15:15.639Z,5.95
2018-11-25T01:17:44.865Z,6.07
2018-11-25T01:20:18.741Z,6.02
2018-11-25T01:22:47.674Z,5.89
2018-11-25T01:25:16.868Z,5.98
2018-11-25T01:27:46.284Z,5.90
2018-11-25T01:30:16.846Z,6.02
2018-11-25T01:32:45.772Z,6.03
2018-11-25T01:35:14.754Z,5.99
2018-11-25T01:37:43.815Z,6.05
2018-11-25T01:40:14.574Z,5.98
2018-11-25T01:42:43.324Z,6.10
2018-11-25T01:45:14.286Z,6.11
2018-11-25T01:47:43.064Z,6.03
2018-11-25T01:50:13.979Z,5.92
2018-11-25T01:52:42.976Z,5.93
2018-11-25T01:55:13.062Z,6.01
2018-11-25T01:57:41.802Z,6.00
2018-11-25T02:00:17.117Z,6.10
2018-11-25T02:02:45.878Z,6.08
2018-11-25T02:05:14.779Z,6.15
2018-11-25T02:07:43.623Z,6.17
2018-11-25T02:10:14.741Z,6.11
2018-11-25T02:12:43.768Z,5.95
2018-11-25T02:15:14.633Z,6.02
2018-11-25T02:17:43.418Z,5.97
2018-11-25T02:20:22.375Z,6.11
2018-11-25T02:22:51.868Z,5.98
2018-11-25T02:25:20.813Z,6.14
2018-11-25T02:27:49.800Z,6.26
2018-11-25T02:30:19.014Z,6.28
2018-11-25T02:32:48.103Z,6.30
2018-11-25T02:35:17.627Z,6.31
2018-11-25T02:37:46.449Z,6.34
2018-11-25T02:40:16.112Z,6.28
2018-11-25T02:42:44.883Z,6.32
2018-11-25T02:45:18.496Z,6.35
2018-11-25T02:47:47.587Z,6.34
2018-11-25T02:50:29.775Z,6.13
2018-11-25T02:53:00.689Z,6.23
2018-11-25T02:55:29.711Z,6.19
2018-11-25T02:57:59.186Z,6.26
2018-11-25T03:00:28.380Z,6.22
2018-11-25T03:02:58.015Z,6.25
2018-11-25T03:05:27.004Z,6.23
2018-11-25T03:07:56.013Z,6.10
2018-11-25T03:10:24.826Z,6.18
2018-11-25T03:12:53.643Z,6.22
2018-11-25T03:15:22.474Z,6.19
2018-11-25T03:17:51.406Z,6.09
2018-11-25T03:20:20.285Z,6.19
2018-11-25T03:22:49.172Z,6.09
2018-11-25T03:25:18.956Z,6.18
2018-11-25T03:27:48.052Z,6.25
2018-11-25T03:30:17.802Z,6.13
2018-11-25T03:32:47.538Z,6.19
2018-11-25T03:35:16.473Z,6.11
2018-11-25T03:37:45.965Z,6.16
2018-11-25T03:40:16.670Z,6.19
2018-11-25T03:42:45.485Z,6.21
2018-11-25T03:45:17.171Z,6.21
2018-11-25T03:47:46.000Z,6.33
2018-11-25T03:50:15.482Z,6.31
2018-11-25T03:52:44.371Z,6.30
2018-11-25T03:55:14.034Z,6.24
2018-11-25T03:57:42.886Z,6.19
2018-11-25T04:00:15.827Z,6.21
2018-11-25T04:02:44.645Z,6.21
2018-11-25T04:05:14.615Z,6.21
2018-11-25T04:07:43.409Z,6.00
2018-11-25T04:10:13.433Z,6.01
2018-11-25T04:12:42.177Z,6.05
2018-11-25T04:15:16.288Z,5.90
2018-11-25T04:17:45.206Z,6.09
2018-11-25T04:20:15.823Z,6.16
2018-11-25T04:22:44.647Z,6.16
2018-11-25T04:25:13.963Z,6.13
2018-11-25T04:27:42.762Z,6.19
2018-11-25T04:30:16.059Z,6.16
2018-11-25T04:32:45.486Z,6.32
2018-11-25T04:35:14.428Z,6.32
2018-11-25T04:37:43.393Z,6.39
2018-11-25T04:40:13.284Z,6.34
2018-11-25T04:42:42.199Z,6.39
2018-11-25T04:45:15.008Z,6.39
2018-11-25T04:47:43.878Z,6.28
2018-11-25T04:50:20.902Z,6.33
2018-11-25T04:52:49.921Z,6.31
2018-11-25T04:55:18.837Z,6.35
2018-11-25T04:57:51.743Z,6.33
2018-11-25T05:00:20.793Z,6.45
2018-11-25T05:02:50.427Z,6.39
2018-11-25T05:05:19.235Z,6.45
2018-11-25T05:07:47.965Z,6.53
2018-11-25T05:10:17.760Z,6.38
2018-11-25T05:12:46.818Z,6.33
2018-11-25T05:15:21.433Z,6.29
2018-11-25T05:17:50.669Z,6.28
2018-11-25T05:20:20.090Z,6.33
2018-11-25T05:22:48.899Z,6.35
2018-11-25T05:25:18.924Z,6.43
2018-11-25T05:27:47.621Z,6.46
2018-11-25T05:30:18.527Z,6.44
2018-11-25T05:32:47.413Z,6.44
2018-11-25T05:35:17.121Z,6.46
2018-11-25T05:37:45.855Z,6.43
2018-11-25T05:40:15.639Z,6.38
2018-11-25T05:42:44.491Z,6.47
2018-11-25T05:45:18.026Z,6.42
2018-11-25T05:47:46.846Z,6.38
2018-11-25T05:50:18.122Z,6.29
2018-11-25T05:52:46.965Z,6.30
2018-11-25T05:55:15.721Z,6.46
2018-11-25T05:57:44.405Z,6.42
2018-11-25T06:00:23.156Z,6.26
2018-11-25T06:02:51.867Z,6.20
2018-11-25T06:05:20.575Z,6.24
2018-11-25T06:07:49.387Z,6.37
2018-11-25T06:10:18.099Z,6.42
2018-11-25T06:12:46.827Z,6.45
2018-11-25T06:15:15.771Z,6.37
2018-11-25T06:17:44.484Z,6.41
2018-11-25T06:20:18.114Z,6.25
2018-11-25T06:22:47.200Z,6.10
2018-11-25T06:25:17.966Z,6.26
2018-11-25T06:27:46.825Z,6.33
2018-11-25T06:30:20.515Z,6.27
2018-11-25T06:32:49.480Z,6.41
2018-11-25T06:35:19.135Z,6.35
2018-11-25T06:37:47.908Z,6.39
2018-11-25T06:40:18.554Z,6.39
2018-11-25T06:42:47.343Z,6.37
2018-11-25T06:45:18.486Z,6.51
2018-11-25T06:47:47.383Z,6.41
2018-11-25T06:50:16.116Z,6.37
2018-11-25T06:52:44.802Z,6.38
2018-11-25T06:55:13.965Z,6.39
2018-11-25T06:57:42.673Z,6.34
2018-11-25T07:00:16.618Z,6.39
2018-11-25T07:02:45.325Z,6.49
2018-11-25T07:05:14.112Z,6.45
2018-11-25T07:07:42.871Z,6.51
2018-11-25T07:10:13.644Z,6.47
2018-11-25T07:12:42.367Z,6.43
2018-11-25T07:15:12.618Z,6.43
2018-11-25T07:17:41.300Z,6.46
2018-11-25T07:20:12.179Z,6.31
2018-11-25T07:22:41.112Z,6.30
2018-11-25T07:25:25.535Z,6.36
2018-11-25T07:27:54.262Z,6.45
2018-11-25T07:30:27.250Z,6.35
2018-11-25T07:32:56.133Z,6.45
2018-11-25T07:35:26.036Z,6.59
2018-11-25T07:37:54.791Z,6.67
2018-11-25T07:40:24.243Z,6.54
2018-11-25T07:42:53.325Z,6.50
2018-11-25T07:45:30.219Z,6.34
2018-11-25T07:47:53.927Z,6.45
2018-11-25T07:50:22.647Z,6.47
2018-11-25T07:52:51.895Z,6.56
2018-11-25T07:55:21.711Z,6.50
2018-11-25T07:57:51.527Z,6.44
2018-11-25T08:00:21.820Z,6.52
2018-11-25T08:02:50.703Z,6.49
2018-11-25T08:05:22.998Z,6.52
2018-11-25T08:07:51.807Z,6.54
2018-11-25T08:10:20.616Z,6.68
2018-11-25T08:12:49.827Z,6.59
2018-11-25T08:15:20.210Z,6.52
2018-11-25T08:17:49.114Z,6.53
2018-11-25T08:20:19.743Z,6.53
2018-11-25T08:22:48.613Z,6.53
2018-11-25T08:25:21.403Z,6.53
2018-11-25T08:27:50.758Z,6.48
2018-11-25T08:30:23.290Z,6.52
2018-11-25T08:32:52.518Z,6.44
2018-11-25T08:35:21.299Z,6.51
2018-11-25T08:37:50.092Z,6.61
2018-11-25T08:40:24.683Z,6.63
2018-11-25T08:42:54.125Z,6.62
2018-11-25T08:45:22.908Z,6.75
2018-11-25T08:47:51.703Z,6.79
2018-11-25T08:50:21.001Z,6.76
2018-11-25T08:52:51.567Z,6.69
2018-11-25T08:55:24.488Z,6.75
2018-11-25T08:57:53.556Z,6.80
2018-11-25T09:00:23.288Z,6.80
2018-11-25T09:02:52.874Z,6.89
2018-11-25T09:05:21.656Z,6.88
2018-11-25T09:07:50.408Z,6.88
2018-11-25T09:10:21.089Z,6.80
2018-11-25T09:12:56.049Z,6.85
2018-11-25T09:15:24.358Z,6.87
2018-11-25T09:17:53.056Z,6.89
2018-11-25T09:20:22.403Z,7.03
2018-11-25T09:22:51.864Z,7.03
2018-11-25T09:25:30.524Z,7.10
2018-11-25T09:28:00.571Z,7.17
2018-11-25T09:30:30.281Z,7.31
2018-11-25T09:32:59.539Z,7.33
2018-11-25T09:35:28.423Z,7.37
2018-11-25T09:37:57.918Z,7.34
2018-11-25T09:40:28.331Z,7.40
2018-11-25T09:42:57.865Z,7.37
2018-11-25T09:45:27.683Z,7.30
2018-11-25T09:47:56.633Z,7.28
2018-11-25T09:50:25.408Z,7.23
2018-11-25T09:52:54.211Z,7.37
2018-11-25T09:55:24.053Z,7.40
2018-11-25T09:57:59.336Z,7.43
2018-11-25T10:00:34.030Z,7.48
2018-11-25T10:03:03.576Z,7.53
2018-11-25T10:05:32.479Z,7.59
2018-11-25T10:08:01.256Z,7.55
2018-11-25T10:10:30.853Z,7.64
2018-11-25T10:12:59.605Z,7.63
2018-11-25T10:15:29.361Z,7.71
2018-11-25T10:17:59.722Z,7.65
2018-11-25T10:20:30.213Z,7.75
2018-11-25T10:22:59.212Z,7.73
2018-11-25T10:25:28.069Z,7.69
2018-11-25T10:27:58.165Z,7.79
2018-11-25T10:30:31.044Z,7.75
2018-11-25T10:33:01.632Z,7.67
2018-11-25T10:35:30.612Z,7.78
2018-11-25T10:37:59.508Z,7.88
2018-11-25T10:40:28.344Z,7.83
2018-11-25T10:42:57.852Z,7.74
2018-11-25T10:45:27.826Z,7.76
2018-11-25T10:48:00.570Z,7.71
2018-11-25T10:50:29.498Z,7.91
2018-11-25T10:52:58.217Z,7.93
2018-11-25T10:55:34.500Z,7.91
2018-11-25T10:58:03.291Z,7.83
2018-11-25T11:00:38.874Z,7.84
2018-11-25T11:03:14.872Z,7.80
2018-11-25T11:05:48.939Z,7.82
2018-11-25T11:08:17.722Z,7.92
2018-11-25T11:10:46.488Z,7.77
2018-11-25T11:13:15.246Z,7.82
2018-11-25T11:15:44.051Z,7.82
2018-11-25T11:18:12.800Z,7.94
2018-11-25T11:20:41.674Z,7.88
2018-11-25T11:23:10.454Z,7.95
2018-11-25T11:25:39.199Z,7.95
2018-11-25T11:28:07.991Z,7.99
2018-11-25T11:30:36.711Z,7.87
2018-11-25T11:33:05.771Z,7.75
2018-11-25T11:35:34.643Z,7.89
2018-11-25T11:38:03.385Z,8.02
2018-11-25T11:40:32.245Z,8.08
2018-11-25T11:43:01.129Z,7.97
2018-11-25T11:45:29.944Z,8.03
2018-11-25T11:47:58.698Z,8.06
2018-11-25T11:50:28.100Z,8.07
2018-11-25T11:52:56.816Z,8.04
2018-11-25T11:55:25.572Z,8.13
2018-11-25T11:57:54.422Z,7.99
2018-11-25T12:00:26.304Z,8.07
2018-11-25T12:02:55.278Z,8.00
2018-11-25T12:05:24.070Z,8.02
2018-11-25T12:07:52.815Z,8.06
2018-11-25T12:10:21.790Z,8.01
2018-11-25T12:12:50.520Z,8.00
2018-11-25T12:15:36.737Z,7.98
2018-11-25T12:18:06.045Z,8.01
2018-11-25T12:20:34.983Z,8.02
2018-11-25T12:23:03.775Z,8.13
2018-11-25T12:25:32.603Z,8.02
2018-11-25T12:28:01.390Z,7.90
2018-11-25T12:30:30.316Z,7.91
2018-11-25T12:32:59.094Z,7.92
2018-11-25T12:35:28.123Z,8.04
2018-11-25T12:37:56.934Z,7.95
2018-11-25T12:40:25.680Z,8.06
2018-11-25T12:42:57.722Z,8.01
2018-11-25T12:45:26.551Z,8.06
2018-11-25T12:47:55.358Z,8.11
2018-11-25T12:50:25.257Z,8.24
2018-11-25T12:52:54.046Z,8.24
2018-11-25T12:55:25.300Z,8.23
2018-11-25T12:57:54.525Z,8.14
2018-11-25T13:00:35.315Z,8.17
2018-11-25T13:03:04.518Z,8.14
2018-11-25T13:05:33.830Z,7.88
2018-11-25T13:08:02.706Z,7.95
2018-11-25T13:10:31.733Z,8.07
2018-11-25T13:13:00.663Z,8.17
2018-11-25T13:15:29.375Z,8.19
2018-11-25T13:17:58.264Z,8.01
2018-11-25T13:20:28.155Z,8.00
2018-11-25T13:22:57.109Z,8.09
2018-11-25T13:25:26.023Z,8.17
2018-11-25T13:27:54.915Z,8.18
2018-11-25T13:30:25.737Z,8.20
2018-11-25T13:32:57.044Z,8.04
2018-11-25T13:35:29.144Z,8.00
2018-11-25T13:37:58.873Z,7.92
2018-11-25T13:40:28.379Z,8.03
2018-11-25T13:42:58.198Z,8.14
2018-11-25T13:45:27.119Z,8.14
2018-11-25T13:47:55.946Z,8.07
2018-11-25T13:50:24.838Z,8.01
2018-11-25T13:52:54.454Z,8.00
2018-11-25T13:55:24.921Z,7.97
2018-11-25T13:57:53.656Z,7.94
2018-11-25T14:00:28.354Z,8.02
2018-11-25T14:02:58.299Z,8.12
2018-11-25T14:05:27.031Z,8.15
2018-11-25T14:07:55.943Z,8.03
2018-11-25T14:10:28.681Z,7.88
2018-11-25T14:12:58.255Z,7.88
2018-11-25T14:15:27.330Z,7.86
2018-11-25T14:17:56.076Z,7.92
2018-11-25T14:20:24.926Z,7.96
2018-11-25T14:22:53.688Z,7.94
2018-11-25T14:25:23.369Z,7.99
2018-11-25T14:27:54.271Z,8.02
2018-11-25T14:30:25.099Z,7.94
2018-11-25T14:32:53.989Z,8.13
2018-11-25T14:35:23.064Z,8.23
2018-11-25T14:37:51.840Z,8.27
2018-11-25T14:40:20.878Z,8.22
2018-11-25T14:42:49.800Z,8.33
2018-11-25T14:45:18.933Z,8.19
2018-11-25T14:47:47.675Z,8.19
2018-11-25T14:50:17.723Z,7.98
2018-11-25T14:52:47.716Z,7.80
2018-11-25T14:55:16.734Z,7.76
2018-11-25T14:57:45.624Z,7.72
2018-11-25T15:00:16.028Z,7.61
2018-11-25T15:02:45.728Z,7.55
2018-11-25T15:05:20.966Z,7.44
2018-11-25T15:07:50.026Z,7.35
2018-11-25T15:10:18.730Z,7.30
2018-11-25T15:12:47.748Z,7.30
2018-11-25T15:15:18.223Z,7.28
2018-11-25T15:17:47.014Z,7.31
2018-11-25T15:20:16.631Z,7.27
2018-11-25T15:22:46.479Z,7.21
2018-11-25T15:25:18.307Z,7.07
2018-11-25T15:27:47.088Z,7.03
2018-11-25T15:30:15.842Z,7.08
2018-11-25T15:32:44.639Z,7.11
2018-11-25T15:35:13.830Z,7.06
2018-11-25T15:37:44.840Z,7.03
2018-11-25T15:40:18.369Z,7.04
2018-11-25T15:42:47.769Z,7.09
2018-11-25T15:45:16.538Z,7.03
2018-11-25T15:47:48.290Z,7.14
2018-11-25T15:50:20.592Z,7.11
2018-11-25T15:52:49.771Z,7.15
2018-11-25T15:55:18.618Z,7.09
2018-11-25T15:57:47.690Z,7.13
2018-11-25T16:00:18.743Z,7.09
2018-11-25T16:02:47.748Z,7.10
2018-11-25T16:05:24.152Z,6.87
2018-11-25T16:07:53.038Z,6.85
2018-11-25T16:10:21.843Z,6.83
2018-11-25T16:12:51.351Z,6.83
2018-11-25T16:15:21.508Z,6.80
2018-11-25T16:17:50.260Z,6.74
2018-11-25T16:20:20.658Z,6.67
2018-11-25T16:22:51.899Z,6.66
2018-11-25T16:25:30.833Z,6.68
2018-11-25T16:28:06.607Z,6.64
2018-11-25T16:30:36.782Z,6.64
2018-11-25T16:33:05.720Z,6.65
2018-11-25T16:35:36.468Z,6.66
2018-11-25T16:38:06.158Z,6.55
2018-11-25T16:40:35.148Z,6.55
2018-11-25T16:43:04.239Z,6.51
2018-11-25T16:45:33.206Z,6.49
2018-11-25T16:48:02.147Z,6.56
2018-11-25T16:50:31.174Z,6.45
2018-11-25T16:52:59.951Z,6.45
2018-11-25T16:55:28.799Z,6.44
2018-11-25T16:58:05.265Z,6.47
2018-11-25T17:00:34.032Z,6.41
2018-11-25T17:03:02.787Z,6.42
2018-11-25T17:05:33.444Z,6.42
2018-11-25T17:09:07.259Z,6.40
2018-11-25T17:11:36.168Z,6.23
2018-11-25T17:14:05.368Z,6.22
2018-11-25T17:16:34.129Z,6.21
2018-11-25T17:19:03.283Z,6.22
2018-11-25T17:21:32.062Z,6.24
2018-11-25T17:24:00.855Z,6.22
2018-11-25T17:26:29.728Z,6.20
2018-11-25T17:28:58.591Z,6.23
2018-11-25T17:31:27.520Z,6.18
2018-11-25T17:33:56.383Z,6.20
2018-11-25T17:36:25.071Z,6.15
2018-11-25T17:38:53.770Z,6.18
2018-11-25T17:41:22.789Z,6.07
2018-11-25T17:43:51.759Z,6.10
2018-11-25T17:46:20.578Z,6.14
2018-11-25T17:48:49.714Z,6.13
2018-11-25T17:51:18.359Z,6.13
2018-11-25T17:53:47.058Z,6.18
2018-11-25T17:56:15.780Z,6.19
2018-11-25T17:58:44.468Z,6.19
2018-11-25T18:01:13.229Z,6.17
2018-11-25T18:03:42.252Z,6.12
2018-11-25T18:06:11.015Z,6.16
2018-11-25T18:08:39.791Z,6.17
2018-11-25T18:11:08.535Z,6.20
2018-11-25T18:13:39.449Z,6.27
2018-11-25T18:16:11.015Z,6.31
2018-11-25T18:18:47.918Z,6.31
2018-11-25T18:21:20.811Z,6.30
2018-11-25T18:23:49.520Z,6.20
2018-11-25T18:26:18.299Z,6.19
2018-11-25T18:28:47.506Z,6.28
2018-11-25T18:31:16.278Z,6.17
2018-11-25T18:33:45.059Z,6.18
2018-11-25T18:36:14.792Z,6.19
2018-11-25T18:38:43.656Z,6.21
2018-11-25T18:41:12.424Z,6.22
2018-11-25T18:43:41.488Z,6.22
2018-11-25T18:46:10.315Z,6.25
2018-11-25T18:48:41.787Z,6.20
2018-11-25T18:51:10.646Z,6.25
2018-11-25T18:53:39.407Z,6.19
2018-11-25T18:56:08.089Z,6.16
2018-11-25T18:58:36.856Z,6.12
2018-11-25T19:01:14.159Z,6.16
2018-11-25T19:03:42.990Z,6.26
2018-11-25T19:06:11.748Z,6.31
2018-11-25T19:08:40.632Z,6.23
2018-11-25T19:11:09.531Z,6.19
2018-11-25T19:13:38.287Z,6.20
2018-11-25T19:16:07.084Z,6.30
2018-11-25T19:18:36.012Z,6.23
2018-11-25T19:21:04.786Z,6.26
2018-11-25T19:23:33.542Z,6.30
2018-11-25T19:26:02.352Z,6.25
2018-11-25T19:28:31.061Z,6.38
2018-11-25T19:30:59.829Z,6.36
2018-11-25T19:33:28.820Z,6.47
2018-11-25T19:35:57.612Z,6.51
2018-11-25T19:38:26.334Z,6.41
2018-11-25T19:40:55.204Z,6.44
2018-11-25T19:43:23.975Z,6.38
2018-11-25T19:45:52.724Z,6.39
2018-11-25T19:48:22.031Z,6.38
2018-11-25T19:50:50.981Z,6.38
2018-11-25T19:53:19.741Z,6.33
2018-11-25T19:55:48.671Z,6.35
2018-11-25T19:58:17.517Z,6.45
2018-11-25T20:00:46.335Z,6.33
2018-11-25T20:03:15.194Z,6.32
2018-11-25T20:05:44.106Z,6.28
2018-11-25T20:08:12.860Z,6.36
2018-11-25T20:10:41.972Z,6.35
2018-11-25T20:13:11.943Z,6.34
2018-11-25T20:15:39.914Z,6.41
2018-11-25T20:18:10.077Z,6.42
2018-11-25T20:20:38.866Z,6.43
2018-11-25T20:23:07.883Z,6.46
2018-11-25T20:25:36.748Z,6.42
2018-11-25T20:28:05.553Z,6.44
2018-11-25T20:30:34.860Z,6.40
2018-11-25T20:33:08.851Z,6.44
2018-11-25T20:35:37.816Z,6.42
2018-11-25T20:38:12.335Z,6.43
2018-11-25T20:40:41.071Z,6.46
2018-11-25T20:43:09.805Z,6.48
2018-11-25T20:45:43.699Z,6.52
2018-11-25T20:48:12.407Z,6.49
2018-11-25T20:50:41.219Z,6.39
2018-11-25T20:53:15.217Z,6.45
2018-11-25T20:55:44.024Z,6.39
2018-11-25T20:58:12.798Z,6.32
2018-11-25T21:00:42.614Z,6.37
2018-11-25T21:03:12.346Z,6.35
2018-11-25T21:05:41.132Z,6.31
2018-11-25T21:08:09.960Z,6.31
2018-11-25T21:10:39.018Z,6.29
2018-11-25T21:13:08.291Z,6.18
2018-11-25T21:15:37.286Z,6.13
2018-11-25T21:18:06.681Z,6.13
2018-11-25T21:20:35.416Z,6.15
2018-11-25T21:23:04.407Z,6.13
2018-11-25T21:25:33.259Z,6.09
2018-11-25T21:28:02.060Z,6.14
2018-11-25T21:30:30.993Z,6.06
2018-11-25T21:32:59.863Z,6.01
2018-11-25T21:35:28.950Z,6.01
2018-11-25T21:37:57.722Z,5.97
2018-11-25T21:40:26.737Z,5.87
2018-11-25T21:42:55.493Z,5.87
2018-11-25T21:45:24.370Z,5.87
2018-11-25T21:47:53.124Z,5.89
2018-11-25T21:50:23.444Z,5.85
2018-11-25T21:52:52.403Z,5.77
2018-11-25T21:55:21.289Z,5.77
2018-11-25T21:57:50.073Z,5.76
2018-11-25T22:00:20.658Z,5.79
2018-11-25T22:02:49.472Z,5.74
2018-11-25T22:05:18.433Z,5.73
2018-11-25T22:07:47.377Z,5.82
2018-11-25T22:10:17.703Z,5.83
2018-11-25T22:12:46.852Z,5.77
2018-11-25T22:15:23.572Z,5.73
2018-11-25T22:17:52.543Z,5.78
2018-11-25T22:20:21.249Z,5.73
2018-11-25T22:22:50.112Z,5.75
2018-11-25T22:25:20.078Z,5.71
2018-11-25T22:27:49.049Z,5.70
2018-11-25T22:30:20.752Z,5.66
2018-11-25T22:32:49.493Z,5.66
2018-11-25T22:35:19.428Z,5.70
2018-11-25T22:37:48.452Z,5.70
2018-11-25T22:40:18.161Z,5.73
2018-11-25T22:42:47.765Z,5.72
2018-11-25T22:45:20.679Z,5.71
2018-11-25T22:47:49.497Z,5.70
2018-11-25T22:50:20.478Z,5.69
2018-11-25T22:52:49.675Z,5.70
2018-11-25T22:55:22.950Z,5.69
2018-11-25T22:57:51.887Z,5.67
2018-11-25T23:00:25.931Z,5.71
2018-11-25T23:02:55.138Z,5.67
2018-11-25T23:05:35.068Z,5.73
2018-11-25T23:08:04.210Z,5.73
2018-11-25T23:10:33.235Z,5.76
2018-11-25T23:13:02.017Z,5.88
2018-11-25T23:15:30.907Z,5.99
2018-11-25T23:17:59.975Z,6.04
2018-11-25T23:20:29.064Z,6.03
2018-11-25T23:22:57.886Z,6.03
2018-11-25T23:25:26.616Z,6.13
2018-11-25T23:27:55.369Z,6.18
2018-11-25T23:30:24.425Z,6.17
2018-11-25T23:32:53.240Z,6.10
2018-11-25T23:35:25.340Z,6.18
2018-11-25T23:37:54.129Z,6.12
2018-11-25T23:40:22.881Z,6.07
2018-11-25T23:42:51.834Z,6.17
2018-11-25T23:45:20.611Z,6.13
2018-11-25T23:47:49.385Z,6.20
2018-11-25T23:50:18.378Z,6.07
2018-11-25T23:52:48.322Z,6.15
2018-11-25T23:55:17.211Z,6.20
2018-11-25T23:57:46.169Z,6.27
